Flight Track Log - Related Links

Times and Time Zones

All times are in EST time to prevent confusion due to time zone crossing. See the QXE2633 flight status page for this flight to view local times or setup timezone preferences in your user account.

Time Position Orientation Groundspeed Altitude Reporting Facility
EST Latitude Longitude Course Direction KTS MPH feet Rate Location/Type
Sat 06:37:00 PM 45.0010 -122.5019 172° South  Level Estimated
Sat 06:38:00 PM 44.9196 -122.4696 164° South  Level FlightAware Approximate
Sat 06:39:00 PM 44.8356 -122.4565 164° South  Level Estimated
Sat 06:40:00 PM 44.7516 -122.4435 170° South  Level Estimated
Sat 06:41:00 PM 44.6698 -122.4140 166° South  Level FlightAware Approximate
Sat 06:42:00 PM 44.5879 -122.3847 166° South  Level FlightAware Approximate
Sat 06:43:00 PM 44.5060 -122.3554 166° South  Level FlightAware Approximate
Sat 06:44:00 PM 44.4241 -122.3262 166° South  Level FlightAware Approximate
Sat 06:45:00 PM 44.3422 -122.2971 166° South  Level FlightAware Approximate
Sat 06:46:00 PM 44.2581 -122.2856 170° South  Level Estimated
Sat 06:47:00 PM 44.1762 -122.2568 166° South  Level FlightAware Approximate
Sat 06:48:00 PM 44.0942 -122.2280 166° South  Level FlightAware Approximate
Sat 06:49:00 PM 44.0101 -122.2172 170° South  Level Estimated
Sat 06:50:00 PM 43.9274 -122.1930 168° South  Level FlightAware Approximate
Sat 06:51:00 PM 43.8447 -122.1688 168° South  Level FlightAware Approximate
Sat 06:52:00 PM 43.7621 -122.1446 168° South  Level FlightAware Approximate
Sat 06:53:00 PM 43.6794 -122.1206 168° South  Level FlightAware Approximate
Sat 06:54:00 PM 43.5967 -122.0966 168° South  Level FlightAware Approximate
Sat 06:55:00 PM 43.5140 -122.0726 168° South  Level FlightAware Approximate
Sat 06:56:00 PM 43.4313 -122.0488 168° South  Level FlightAware Approximate
Sat 06:57:00 PM 43.3485 -122.0250 168° South  Level FlightAware Approximate
Sat 06:58:00 PM 43.2643 -122.0165 170° South  Level Estimated
Sat 06:59:00 PM 43.1814 -121.9939 169° South  Level FlightAware Approximate
Sat 07:00:00 PM 43.0985 -121.9712 169° South  Level FlightAware Approximate
Sat 07:01:00 PM 43.0156 -121.9487 169° South  Level FlightAware Approximate
Sat 07:02:00 PM 42.9328 -121.9262 169° South  Level FlightAware Approximate
Sat 07:03:00 PM 42.8499 -121.9037 169° South  Level FlightAware Approximate
Sat 07:04:00 PM 42.7670 -121.8814 169° South  Level FlightAware Approximate
Sat 07:05:00 PM 42.6862 -121.8575 168° South  Level FlightAware Approximate
Sat 07:06:00 PM 42.6054 -121.8337 168° South  Level FlightAware Approximate
Sat 07:07:00 PM 42.5246 -121.8100 168° South  Level FlightAware Approximate
Sat 07:08:00 PM 42.4420 -121.8050 170° South  Level Estimated
Sat 07:09:00 PM 42.3613 -121.7805 167° South  Level FlightAware Approximate
Sat 07:10:00 PM 42.2806 -121.7561 167° South  Level FlightAware Approximate
Sat 07:11:00 PM 42.2005 -121.7319 167° South  Level FlightAware Approximate
Sat 07:12:00 PM 42.1194 -121.7167 180° South  Level FlightAware Approximate
Sat 07:13:00 PM 42.0373 -121.7167 180° South  Level FlightAware Approximate
Sat 07:14:00 PM 41.9562 -121.7167 180° South  Level FlightAware Approximate
Sat 07:15:00 PM 41.8751 -121.7167 180° South  Level FlightAware Approximate
Sat 07:16:00 PM 41.7941 -121.7167 180° South  Level FlightAware Approximate
Sat 07:17:00 PM 41.7130 -121.7167 180° South  Level FlightAware Approximate
Sat 07:18:00 PM 41.6319 -121.7167 180° South  Level FlightAware Approximate
Sat 07:19:00 PM 41.5508 -121.7167 180° South  Level FlightAware Approximate
Sat 07:20:00 PM 41.4697 -121.7167 180° South  Level FlightAware Approximate
Sat 07:21:00 PM 41.3887 -121.7167 180° South  Level FlightAware Approximate
Sat 07:22:00 PM 41.3076 -121.7167 180° South  Level FlightAware Approximate
Sat 07:23:00 PM 41.2265 -121.7167 180° South  Level FlightAware Approximate
Sat 07:24:00 PM 41.1454 -121.7167 180° South  Level FlightAware Approximate
Sat 07:25:00 PM 41.0644 -121.7167 180° South  Level FlightAware Approximate
Sat 07:26:00 PM 40.9833 -121.7097 176° South  Level FlightAware Approximate
Sat 07:27:00 PM 40.9021 -121.7027 176° South  Level FlightAware Approximate
Sat 07:28:00 PM 40.8210 -121.6957 176° South  Level FlightAware Approximate
Sat 07:29:00 PM 40.7399 -121.6888 176° South  Level FlightAware Approximate
Sat 07:30:00 PM 40.6600 -121.6820 176° South  Level FlightAware Approximate
Sat 07:31:00 PM 40.5801 -121.6751 176° South  Level FlightAware Approximate
Sat 07:32:00 PM 40.5001 -121.6684 176° South  Level FlightAware Approximate
Sat 07:33:00 PM 40.4202 -121.6616 176° South  Level FlightAware Approximate
Sat 07:34:00 PM 40.3403 -121.6548 176° South  Level FlightAware Approximate
Sat 07:35:00 PM 40.2602 -121.6500 180° South  Level FlightAware Approximate
Sat 07:36:00 PM 40.1791 -121.6460 178° South  Level FlightAware Approximate
Sat 07:37:00 PM 40.0981 -121.6420 178° South  Level FlightAware Approximate
Sat 07:38:00 PM 40.0172 -121.6379 178° South  Level FlightAware Approximate
Sat 07:39:00 PM 39.9355 -121.6339 178° South  Level FlightAware Approximate
Sat 07:40:00 PM 39.8539 -121.6299 178° South  Level FlightAware Approximate
Sat 07:41:00 PM 39.7723 -121.6259 178° South  Level FlightAware Approximate
Sat 07:42:00 PM 39.6907 -121.6219 178° South  Level FlightAware Approximate
Sat 07:43:00 PM 39.6091 -121.6179 178° South  Level FlightAware Approximate
Sat 07:44:00 PM 39.5274 -121.6167 180° South  Level FlightAware Approximate
Sat 07:45:00 PM 39.4404 -121.6124 176° South  Level FlightAware Approximate
Sat 07:46:00 PM 39.3535 -121.6037 176° South  Level FlightAware Approximate
Sat 07:47:00 PM 39.2665 -121.6000 180° South  Level FlightAware Approximate
Sat 07:48:00 PM 39.1794 -121.6000 180° South  Level FlightAware Approximate
Sat 07:49:00 PM 39.0924 -121.5989 174° South  Level FlightAware Approximate
Sat 07:50:00 PM 39.0058 -121.5865 174° South  Level FlightAware Approximate
Sat 07:51:00 PM 38.9188 -121.5833 180° South  Level FlightAware Approximate
Sat 07:52:00 PM 38.8317 -121.5833 180° South  Level FlightAware Approximate
Sat 07:53:00 PM 38.7446 -121.5833 180° South  Level FlightAware Approximate
Sat 07:54:00 PM 38.6954 -121.5908 180° South  Level Estimated
Sat 07:55:00 PM 38.6954 -121.5908 180° South  Level Estimated
Sat 07:56:00 PM 38.6954 -121.5908 180° South  Level Estimated
Sat 07:57:00 PM 38.6954 -121.5908 180° South  Level Estimated
Sat 07:58:00 PM 38.6954 -121.5908 180° South  Level Estimated
Sat 07:59:00 PM 38.6954 -121.5908 180° South  Level Estimated
Sat 08:00:00 PM 38.6954 -121.5908 270° West  Level Estimated
Sat 08:01:00 PM 38.6954 -121.5908 270° West  Level Estimated
Sat 08:02:00 PM 38.6954 -121.5908 270° West  Level Estimated
Sat 08:03:00 PM 38.6954 -121.5908 270° West  Level Estimated
Sat 08:04:00 PM 38.6954 -121.5908 270° West  Level Estimated
Sat 08:05:00 PM 38.6954 -121.5908 270° West  Level Estimated
Sat 08:06:00 PM 38.6954 -121.5908 270° West  Level Estimated
Sat 08:07:00 PM 38.6954 -121.5908 270° West  Level Estimated
Sat 08:08:00 PM 38.6954 -121.5908 270° West  Level Estimated
Sat 08:09:00 PM 38.6954 -121.5908 270° West  Level Estimated

Login

Don't have an account? Register now (free) for customized features, flight alerts, and more!